EZY990 LSZH-EGKK
Flight info
| Callsign | EZY990 |
|---|---|
| Flight time | N/A |
| Altitude | 38000 |
| Route | VEBIT T10 TORPA DCT REKLA DCT RLP DCT ROTSI DCT KOTUN DCT NINAL DCT KESAX DCT KUNAV |
| Aircraft | A320/M-SDE3FGHIRWY/LB1 |
Departure
| Time | 2026-05-01 14:59 |
|---|---|
| Airport | Zürich Airport (LSZH) |
Arrival
| Time | N/A |
|---|---|
| Airport | London Gatwick Airport (EGKK) |
| Time | Latitude | Longitude | Altitude | Speed | Heading |
|---|---|---|---|---|---|
| 2026-05-01 14:58 | 47.38000 | 8.31907 | 15659 ft | 321 kts | 241° |
| 2026-05-01 14:59 | 47.36968 | 8.28980 | 16426 ft | 322 kts | 241° |
| 2026-05-01 14:59 | 47.35926 | 8.26037 | 17148 ft | 325 kts | 241° |
| 2026-05-01 14:59 | 47.34877 | 8.23086 | 17840 ft | 329 kts | 241° |
| 2026-05-01 14:59 | 47.33798 | 8.20064 | 18512 ft | 334 kts | 241° |
| 2026-05-01 15:00 | 47.31594 | 8.13889 | 19690 ft | 341 kts | 242° |
| 2026-05-01 15:00 | 47.30508 | 8.10838 | 20291 ft | 343 kts | 242° |
| 2026-05-01 15:00 | 47.29373 | 8.07651 | 20879 ft | 348 kts | 242° |
| 2026-05-01 15:01 | 47.28329 | 8.04411 | 21410 ft | 352 kts | 250° |
| 2026-05-01 15:01 | 47.27653 | 8.00934 | 22005 ft | 355 kts | 260° |
| 2026-05-01 15:01 | 47.27384 | 7.97322 | 22593 ft | 356 kts | 270° |
| 2026-05-01 15:01 | 47.27529 | 7.93674 | 23163 ft | 358 kts | 279° |
| 2026-05-01 15:02 | 47.27886 | 7.90016 | 23738 ft | 362 kts | 279° |
| 2026-05-01 15:02 | 47.28007 | 7.88776 | 23919 ft | 362 kts | 279° |
| 2026-05-01 15:02 | 47.28601 | 7.82579 | 24724 ft | 367 kts | 279° |
| 2026-05-01 15:02 | 47.28956 | 7.78836 | 25206 ft | 369 kts | 278° |
| 2026-05-01 15:03 | 47.29312 | 7.75091 | 25691 ft | 371 kts | 278° |
| 2026-05-01 15:03 | 47.29667 | 7.71312 | 26182 ft | 373 kts | 278° |
| 2026-05-01 15:03 | 47.30019 | 7.67519 | 26669 ft | 375 kts | 278° |
| 2026-05-01 15:03 | 47.30401 | 7.63698 | 27121 ft | 377 kts | 282° |
| 2026-05-01 15:04 | 47.31087 | 7.59958 | 27584 ft | 379 kts | 289° |
| 2026-05-01 15:04 | 47.31906 | 7.56262 | 28028 ft | 381 kts | 289° |
| 2026-05-01 15:04 | 47.32727 | 7.52534 | 28485 ft | 384 kts | 289° |
| 2026-05-01 15:04 | 47.33545 | 7.48786 | 28940 ft | 386 kts | 288° |
| 2026-05-01 15:05 | 47.34364 | 7.44999 | 29372 ft | 388 kts | 288° |
| 2026-05-01 15:05 | 47.35183 | 7.41191 | 29798 ft | 391 kts | 288° |
| 2026-05-01 15:05 | 47.36008 | 7.37354 | 30220 ft | 393 kts | 288° |
| 2026-05-01 15:05 | 47.36839 | 7.33491 | 30584 ft | 396 kts | 288° |
| 2026-05-01 15:06 | 47.37673 | 7.29614 | 30943 ft | 398 kts | 287° |
| 2026-05-01 15:06 | 47.38512 | 7.25719 | 31305 ft | 400 kts | 287° |
| 2026-05-01 15:06 | 47.39352 | 7.21801 | 31668 ft | 401 kts | 287° |
| 2026-05-01 15:06 | 47.40192 | 7.17869 | 32093 ft | 401 kts | 287° |
| 2026-05-01 15:07 | 47.40947 | 7.13925 | 32589 ft | 399 kts | 281° |
| 2026-05-01 15:07 | 47.41538 | 7.09928 | 33051 ft | 397 kts | 281° |
| 2026-05-01 15:07 | 47.42122 | 7.05960 | 33520 ft | 396 kts | 281° |
| 2026-05-01 15:07 | 47.42701 | 7.01993 | 33926 ft | 395 kts | 281° |
| 2026-05-01 15:08 | 47.43279 | 6.98029 | 34326 ft | 394 kts | 281° |
| 2026-05-01 15:08 | 47.43861 | 6.94031 | 34687 ft | 393 kts | 281° |
| 2026-05-01 15:08 | 47.44436 | 6.90088 | 35025 ft | 392 kts | 281° |
| 2026-05-01 15:08 | 47.45010 | 6.86154 | 35368 ft | 391 kts | 281° |
| 2026-05-01 15:09 | 47.45582 | 6.82223 | 35682 ft | 391 kts | 281° |
| 2026-05-01 15:09 | 47.45962 | 6.79618 | 35904 ft | 391 kts | 281° |
| 2026-05-01 15:09 | 47.46529 | 6.75699 | 36204 ft | 391 kts | 281° |
| 2026-05-01 15:09 | 47.47103 | 6.71712 | 36501 ft | 390 kts | 281° |
| 2026-05-01 15:10 | 47.47664 | 6.67796 | 36809 ft | 390 kts | 281° |
| 2026-05-01 15:10 | 47.48380 | 6.59884 | 37393 ft | 388 kts | 275° |
| 2026-05-01 15:10 | 47.48665 | 6.55924 | 37647 ft | 388 kts | 275° |
| 2026-05-01 15:11 | 47.48953 | 6.51946 | 37856 ft | 390 kts | 275° |
| 2026-05-01 15:11 | 47.49523 | 6.43943 | 38209 ft | 393 kts | 275° |
| 2026-05-01 15:12 | 47.50091 | 6.35875 | 38254 ft | 395 kts | 275° |
| 2026-05-01 15:12 | 47.50943 | 6.23761 | 38247 ft | 394 kts | 275° |
| 2026-05-01 15:14 | 47.52317 | 6.03660 | 38241 ft | 392 kts | 274° |
| 2026-05-01 15:14 | 47.53164 | 5.91625 | 38233 ft | 392 kts | 279° |
| 2026-05-01 15:15 | 47.54980 | 5.83965 | 38229 ft | 395 kts | 297° |
| 2026-05-01 15:15 | 47.58287 | 5.77480 | 38233 ft | 397 kts | 310° |
| 2026-05-01 15:16 | 47.65777 | 5.65416 | 38229 ft | 397 kts | 310° |
| 2026-05-01 15:18 | 47.75129 | 5.50244 | 38220 ft | 400 kts | 310° |
| 2026-05-01 15:19 | 47.82636 | 5.38007 | 38225 ft | 401 kts | 310° |
| 2026-05-01 15:19 | 47.88266 | 5.28814 | 38225 ft | 401 kts | 310° |
| 2026-05-01 15:20 | 47.93889 | 5.19578 | 38217 ft | 401 kts | 310° |
| 2026-05-01 15:21 | 47.97668 | 5.13356 | 38216 ft | 402 kts | 310° |
| 2026-05-01 15:21 | 48.01419 | 5.07169 | 38218 ft | 402 kts | 309° |
| 2026-05-01 15:22 | 48.07039 | 4.97861 | 38214 ft | 403 kts | 309° |
| 2026-05-01 15:22 | 48.10788 | 4.91632 | 38209 ft | 403 kts | 309° |
| 2026-05-01 15:23 | 48.14542 | 4.85388 | 38205 ft | 404 kts | 309° |
| 2026-05-01 15:23 | 48.18301 | 4.79120 | 38204 ft | 405 kts | 309° |
| 2026-05-01 15:24 | 48.22061 | 4.72839 | 38207 ft | 405 kts | 309° |
| 2026-05-01 15:24 | 48.25813 | 4.66538 | 38216 ft | 405 kts | 309° |
| 2026-05-01 15:25 | 48.29577 | 4.60221 | 38216 ft | 406 kts | 309° |
| 2026-05-01 15:25 | 48.33339 | 4.53895 | 38212 ft | 406 kts | 309° |
| 2026-05-01 15:26 | 48.37092 | 4.47552 | 38205 ft | 406 kts | 309° |
| 2026-05-01 15:26 | 48.40845 | 4.41197 | 38199 ft | 406 kts | 309° |
| 2026-05-01 15:27 | 48.44603 | 4.34841 | 38194 ft | 407 kts | 309° |
| 2026-05-01 15:28 | 48.50234 | 4.25259 | 38207 ft | 407 kts | 309° |
| 2026-05-01 15:28 | 48.54009 | 4.18806 | 38219 ft | 407 kts | 309° |
| 2026-05-01 15:29 | 48.59644 | 4.09184 | 38218 ft | 408 kts | 309° |
| 2026-05-01 15:30 | 48.67148 | 3.96284 | 38216 ft | 409 kts | 309° |
| 2026-05-01 15:31 | 48.78833 | 3.77418 | 38220 ft | 410 kts | 314° |
| 2026-05-01 15:32 | 48.87080 | 3.65382 | 38217 ft | 410 kts | 313° |
| 2026-05-01 15:34 | 48.99224 | 3.47109 | 38221 ft | 409 kts | 313° |